Time;durP1;ratioP1;P1;durP2;ratioP2;P2;SDS_P1;SDS_P2;PMS_P1;PMS_P2;Temp;Humidity;BMP_temperature;BMP_pressure;BME280_temperature;BME280_humidity;BME280_pressure;Samples;Min_cycle;Max_cycle;Signal;HPM_P1;HPM_P2
2023/10/23 00:00:12;;;;;;;2.78;2.30;;;8.80;99.90;;;;;;5052129;28;20210;-64
2023/10/23 00:02:39;;;;;;;2.63;2.00;;;8.80;99.90;;;;;;5052282;28;20206;-64
2023/10/23 00:05:06;;;;;;;6.53;2.53;;;8.70;99.90;;;;;;5052145;28;20253;-64
2023/10/23 00:07:34;;;;;;;4.10;2.30;;;8.70;99.90;;;;;;5052328;28;20495;-64
2023/10/23 00:10:01;;;;;;;4.32;1.65;;;8.60;99.90;;;;;;5051856;28;20298;-64
2023/10/23 00:12:28;;;;;;;2.42;1.92;;;8.60;99.90;;;;;;5051764;28;20649;-63
2023/10/23 00:14:55;;;;;;;2.10;1.90;;;8.60;99.90;;;;;;5051976;28;20321;-64
2023/10/23 00:17:22;;;;;;;2.03;1.93;;;8.50;99.90;;;;;;5051981;28;20198;-64
2023/10/23 00:19:48;;;;;;;3.78;2.25;;;8.40;99.90;;;;;;5051383;28;20455;-64
2023/10/23 00:22:15;;;;;;;3.97;3.58;;;8.40;99.90;;;;;;5052166;28;20212;-63
2023/10/23 00:24:43;;;;;;;2.92;1.80;;;8.40;99.90;;;;;;5051299;28;20241;-63
2023/10/23 00:27:10;;;;;;;6.07;2.17;;;8.30;99.90;;;;;;5051685;28;20268;-64
2023/10/23 00:29:37;;;;;;;2.70;2.47;;;8.30;99.90;;;;;;5051783;28;20722;-64
2023/10/23 00:32:04;;;;;;;4.40;2.25;;;8.20;99.90;;;;;;5051746;28;20213;-64
2023/10/23 00:34:31;;;;;;;4.43;2.05;;;8.20;99.90;;;;;;5051559;28;20226;-64
2023/10/23 00:36:58;;;;;;;5.60;2.72;;;8.20;99.90;;;;;;5051594;28;20292;-64
2023/10/23 00:39:25;;;;;;;5.55;2.30;;;8.10;99.90;;;;;;5051091;28;20695;-64
2023/10/23 00:41:53;;;;;;;3.03;2.58;;;8.10;99.90;;;;;;5050967;28;20206;-64
2023/10/23 00:44:20;;;;;;;2.80;2.60;;;8.10;99.90;;;;;;5051537;28;20206;-63
2023/10/23 00:46:46;;;;;;;2.47;2.00;;;8.00;99.90;;;;;;5051279;28;20317;-64
2023/10/23 00:49:14;;;;;;;2.42;2.28;;;8.00;99.90;;;;;;5051124;28;20768;-64
2023/10/23 00:51:40;;;;;;;2.92;2.40;;;8.00;99.90;;;;;;5051504;28;20627;-64
2023/10/23 00:54:08;;;;;;;2.08;1.90;;;7.90;99.90;;;;;;5051104;28;20226;-64
2023/10/23 00:56:35;;;;;;;5.40;2.22;;;7.90;99.90;;;;;;5051347;28;20293;-64
2023/10/23 00:59:03;;;;;;;4.05;2.60;;;7.80;99.90;;;;;;5050946;28;20210;-64
2023/10/23 01:01:33;;;;;;;3.28;2.22;;;7.80;99.90;;;;;;5051351;28;20777;-64
2023/10/23 01:04:01;;;;;;;2.88;2.47;;;7.70;99.90;;;;;;5051316;28;20582;-64
2023/10/23 01:06:28;;;;;;;6.35;2.55;;;7.70;99.90;;;;;;5051093;28;20237;-64
2023/10/23 01:08:55;;;;;;;2.97;2.35;;;7.70;99.90;;;;;;5051156;28;20210;-64
2023/10/23 01:11:22;;;;;;;4.05;2.08;;;7.60;99.90;;;;;;5051405;28;20211;-64
2023/10/23 01:13:49;;;;;;;2.15;1.95;;;7.60;99.90;;;;;;5051290;28;20210;-64
2023/10/23 01:16:17;;;;;;;4.43;2.00;;;7.60;99.90;;;;;;5051154;28;20218;-64
2023/10/23 01:18:44;;;;;;;2.50;2.00;;;7.50;99.90;;;;;;5050736;28;20297;-64
2023/10/23 01:21:11;;;;;;;3.83;2.20;;;7.50;99.90;;;;;;5051146;28;20595;-65
2023/10/23 01:23:41;;;;;;;3.25;2.55;;;7.50;99.90;;;;;;5050852;28;20304;-64
2023/10/23 01:26:10;;;;;;;2.50;1.73;;;7.40;99.90;;;;;;5051036;28;20320;-63
2023/10/23 01:28:36;;;;;;;1.90;1.80;;;7.40;99.90;;;;;;5050639;28;20232;-64
2023/10/23 01:31:03;;;;;;;3.10;2.17;;;7.40;99.90;;;;;;5050992;28;20252;-64
2023/10/23 01:33:30;;;;;;;2.60;1.65;;;7.30;99.90;;;;;;5051076;28;20598;-64
2023/10/23 01:35:57;;;;;;;1.85;1.75;;;7.30;99.90;;;;;;5050789;28;20234;-64
2023/10/23 01:38:24;;;;;;;2.33;2.22;;;7.30;99.90;;;;;;5050790;28;20293;-64
2023/10/23 01:40:51;;;;;;;3.10;2.25;;;7.30;99.90;;;;;;5051115;28;20631;-64
2023/10/23 01:43:19;;;;;;;2.67;1.90;;;7.30;99.90;;;;;;5051082;28;20208;-64
2023/10/23 01:45:46;;;;;;;3.17;1.85;;;7.20;99.90;;;;;;5050840;28;20312;-63
2023/10/23 01:48:12;;;;;;;2.55;2.35;;;7.20;99.90;;;;;;5050681;28;20222;-63
2023/10/23 01:50:39;;;;;;;2.03;1.70;;;7.20;99.90;;;;;;5050537;28;20216;-64
2023/10/23 01:53:06;;;;;;;3.50;2.00;;;7.10;99.90;;;;;;5052740;28;20214;-64
2023/10/23 01:55:34;;;;;;;2.97;1.70;;;7.10;99.90;;;;;;5054492;28;20226;-64
2023/10/23 01:58:01;;;;;;;3.15;1.77;;;7.10;99.90;;;;;;5053916;28;20297;-64
2023/10/23 02:00:29;;;;;;;2.50;2.30;;;7.00;99.90;;;;;;5054432;28;20202;-64
2023/10/23 02:02:56;;;;;;;2.38;1.70;;;7.00;99.90;;;;;;5054497;28;20355;-64
2023/10/23 02:05:23;;;;;;;1.65;1.33;;;7.00;99.90;;;;;;5054238;28;20237;-64
2023/10/23 02:07:50;;;;;;;3.63;1.80;;;7.00;99.90;;;;;;5054523;28;20716;-64
2023/10/23 02:10:17;;;;;;;2.40;1.65;;;6.90;99.90;;;;;;5054173;28;20298;-64
2023/10/23 02:12:43;;;;;;;4.90;2.13;;;6.90;99.90;;;;;;5054372;28;20590;-64
2023/10/23 02:15:11;;;;;;;3.55;1.77;;;6.90;99.90;;;;;;5052791;28;20722;-64
2023/10/23 02:17:39;;;;;;;1.80;1.70;;;6.90;99.90;;;;;;5053983;28;20195;-64
2023/10/23 02:20:07;;;;;;;2.50;1.92;;;6.90;99.90;;;;;;5052843;28;20207;-64
2023/10/23 02:22:34;;;;;;;2.05;1.85;;;6.80;99.90;;;;;;5053931;28;20241;-63
2023/10/23 02:25:01;;;;;;;3.33;2.40;;;6.80;99.90;;;;;;5053906;28;20230;-64
2023/10/23 02:27:28;;;;;;;1.70;1.60;;;6.80;99.90;;;;;;5053918;28;20232;-64
2023/10/23 02:29:55;;;;;;;2.03;1.77;;;6.80;99.90;;;;;;5053844;28;20594;-64
2023/10/23 02:32:22;;;;;;;2.55;1.55;;;6.70;99.90;;;;;;5053913;28;20217;-64
2023/10/23 02:34:50;;;;;;;3.00;1.50;;;6.70;99.90;;;;;;5053864;28;20712;-65
2023/10/23 02:37:17;;;;;;;1.98;1.80;;;6.70;99.90;;;;;;5053945;28;20293;-64
2023/10/23 02:39:44;;;;;;;4.38;2.10;;;6.70;99.90;;;;;;5053679;28;20297;-64
2023/10/23 02:42:10;;;;;;;2.85;2.55;;;6.60;99.90;;;;;;5053198;28;20209;-64
2023/10/23 02:44:37;;;;;;;1.90;1.80;;;6.60;99.90;;;;;;5053389;28;20257;-63
2023/10/23 02:47:04;;;;;;;1.58;1.48;;;6.60;99.90;;;;;;5053396;28;20297;-64
2023/10/23 02:49:31;;;;;;;2.55;2.40;;;6.60;99.90;;;;;;5053651;28;20795;-64
2023/10/23 02:51:59;;;;;;;2.70;2.50;;;6.50;99.90;;;;;;5053487;28;20213;-64
2023/10/23 02:54:26;;;;;;;4.30;2.58;;;6.50;99.90;;;;;;5053637;28;20206;-64
2023/10/23 02:56:53;;;;;;;5.18;1.73;;;6.50;99.90;;;;;;5053529;28;20658;-64
2023/10/23 02:59:20;;;;;;;3.00;1.65;;;6.50;99.90;;;;;;5052111;28;20202;-65
2023/10/23 03:01:47;;;;;;;2.97;1.70;;;6.40;99.90;;;;;;5053524;28;20291;-64
2023/10/23 03:04:14;;;;;;;2.75;1.83;;;6.40;99.90;;;;;;5053279;28;20206;-64
2023/10/23 03:06:41;;;;;;;3.97;3.67;;;6.40;99.90;;;;;;5053565;28;20214;-64
2023/10/23 03:09:09;;;;;;;2.13;1.52;;;6.40;99.90;;;;;;5052812;28;20233;-63
2023/10/23 03:11:36;;;;;;;2.25;2.05;;;6.40;99.90;;;;;;5053314;28;20206;-64
2023/10/23 03:14:03;;;;;;;4.40;2.35;;;6.40;99.90;;;;;;5053181;28;20220;-64
2023/10/23 03:16:30;;;;;;;1.83;1.60;;;6.30;99.90;;;;;;5053084;28;20258;-64
2023/10/23 03:18:57;;;;;;;3.88;2.20;;;6.30;99.90;;;;;;5053136;28;20203;-64
2023/10/23 03:21:24;;;;;;;2.45;2.22;;;6.30;99.90;;;;;;5053071;28;20586;-64
2023/10/23 03:23:51;;;;;;;2.55;2.30;;;6.30;99.90;;;;;;5052915;28;20213;-63
2023/10/23 03:26:20;;;;;;;4.00;2.15;;;6.30;99.90;;;;;;5052729;28;20230;-64
2023/10/23 03:28:46;;;;;;;2.22;1.75;;;6.30;99.90;;;;;;5052570;28;20322;-64
2023/10/23 03:31:14;;;;;;;4.05;1.85;;;6.30;99.90;;;;;;5053064;28;20582;-63
2023/10/23 03:33:41;;;;;;;3.63;2.05;;;6.20;99.90;;;;;;5052993;28;20206;-64
2023/10/23 03:36:08;;;;;;;2.13;1.75;;;6.20;99.90;;;;;;5052870;28;20229;-64
2023/10/23 03:38:35;;;;;;;2.97;2.65;;;6.20;99.90;;;;;;5052461;28;20202;-64
2023/10/23 03:41:02;;;;;;;2.00;1.90;;;6.20;99.90;;;;;;5052892;28;20210;-63
2023/10/23 03:43:30;;;;;;;3.85;1.77;;;6.20;99.90;;;;;;5052920;28;20240;-64
2023/10/23 03:45:57;;;;;;;2.40;2.20;;;6.20;99.90;;;;;;5052682;28;20222;-64
2023/10/23 03:48:23;;;;;;;2.30;2.17;;;6.10;99.90;;;;;;5052394;28;20728;-64
2023/10/23 03:50:50;;;;;;;2.72;2.10;;;6.10;99.90;;;;;;5052659;28;20230;-63
2023/10/23 03:53:17;;;;;;;2.58;2.38;;;6.10;99.90;;;;;;5052589;28;20213;-64
2023/10/23 03:55:44;;;;;;;2.67;1.80;;;6.10;99.90;;;;;;5052405;28;20244;-64
2023/10/23 03:58:10;;;;;;;2.35;1.80;;;6.10;99.90;;;;;;5050830;28;20206;-64
2023/10/23 04:00:39;;;;;;;4.05;2.60;;;6.00;99.90;;;;;;5051945;28;20213;-64
2023/10/23 04:03:05;;;;;;;2.08;1.98;;;6.00;99.90;;;;;;5052030;28;20206;-64
2023/10/23 04:05:32;;;;;;;3.20;2.38;;;6.00;99.90;;;;;;5052105;28;20243;-64
2023/10/23 04:07:59;;;;;;;7.05;2.45;;;6.00;99.90;;;;;;5052125;28;20228;-64
2023/10/23 04:10:26;;;;;;;1.75;1.65;;;6.00;99.90;;;;;;5052042;28;20292;-64
2023/10/23 04:12:53;;;;;;;6.30;2.10;;;6.00;99.90;;;;;;5051725;28;20298;-64
2023/10/23 04:15:20;;;;;;;1.95;1.85;;;6.00;99.90;;;;;;5051284;28;20232;-64
2023/10/23 04:17:48;;;;;;;4.95;2.35;;;5.90;99.90;;;;;;5051913;28;20699;-64
2023/10/23 04:20:15;;;;;;;2.40;2.25;;;5.90;99.90;;;;;;5051830;28;20210;-64
2023/10/23 04:22:42;;;;;;;1.70;1.60;;;5.90;99.90;;;;;;5052030;28;20313;-64
2023/10/23 04:25:10;;;;;;;2.95;2.75;;;5.90;99.90;;;;;;5051660;28;20240;-64
2023/10/23 04:27:37;;;;;;;2.33;1.77;;;5.90;99.90;;;;;;5051811;28;20293;-65
2023/10/23 04:30:05;;;;;;;2.20;2.00;;;5.80;99.90;;;;;;5051239;28;20919;-65
2023/10/23 04:32:31;;;;;;;3.10;2.40;;;5.80;99.90;;;;;;5052110;28;20210;-65
2023/10/23 04:35:00;;;;;;;1.88;1.73;;;5.80;99.90;;;;;;5051567;28;20687;-65
2023/10/23 04:37:26;;;;;;;3.08;2.30;;;5.70;99.90;;;;;;5051735;28;20229;-65
2023/10/23 04:39:53;;;;;;;4.32;4.10;;;5.70;99.90;;;;;;5051402;28;20210;-65
2023/10/23 04:42:20;;;;;;;4.43;2.00;;;5.70;99.90;;;;;;5051756;28;20385;-66
2023/10/23 04:44:48;;;;;;;2.10;2.00;;;5.70;99.90;;;;;;5051399;28;20225;-65
2023/10/23 04:47:15;;;;;;;6.00;2.42;;;5.70;99.90;;;;;;5051377;28;20211;-65
2023/10/23 04:49:42;;;;;;;4.18;2.47;;;5.60;99.90;;;;;;5050982;28;20228;-65
2023/10/23 04:52:10;;;;;;;2.33;2.13;;;5.60;99.90;;;;;;5051297;28;20237;-65
2023/10/23 04:54:37;;;;;;;4.53;2.47;;;5.60;99.90;;;;;;5051213;28;20230;-65
2023/10/23 04:57:04;;;;;;;3.83;1.92;;;5.60;99.90;;;;;;5051222;28;20209;-65
2023/10/23 04:59:34;;;;;;;3.08;2.05;;;5.60;99.90;;;;;;5051028;28;20285;-66
2023/10/23 05:02:01;;;;;;;2.88;1.90;;;5.60;99.90;;;;;;5051333;28;20751;-65
2023/10/23 05:04:30;;;;;;;2.25;1.83;;;5.60;99.90;;;;;;5051317;28;20296;-65
2023/10/23 05:06:57;;;;;;;3.63;1.88;;;5.50;99.90;;;;;;5073366;22;20708;-63
2023/10/23 05:09:26;;;;;;;5.82;2.45;;;5.50;99.90;;;;;;5049890;28;20604;-63
2023/10/23 05:11:52;;;;;;;4.88;2.17;;;5.50;99.90;;;;;;5051222;28;20217;-63
2023/10/23 05:14:19;;;;;;;3.22;2.42;;;5.50;99.90;;;;;;5051086;28;20838;-63
2023/10/23 05:16:46;;;;;;;2.83;2.63;;;5.40;99.90;;;;;;5051030;28;20230;-63
2023/10/23 05:19:13;;;;;;;3.80;2.00;;;5.40;99.90;;;;;;5050863;28;20199;-63
2023/10/23 05:21:39;;;;;;;2.20;2.00;;;5.40;99.90;;;;;;5051122;28;20249;-64
2023/10/23 05:24:08;;;;;;;2.80;2.60;;;5.40;99.90;;;;;;5050919;28;20212;-63
2023/10/23 05:26:36;;;;;;;3.17;2.03;;;5.40;99.90;;;;;;5051052;28;20261;-63
2023/10/23 05:29:03;;;;;;;3.35;1.80;;;5.40;99.90;;;;;;5054564;28;20222;-63
2023/10/23 05:31:30;;;;;;;3.08;2.65;;;5.30;99.90;;;;;;5055347;28;20660;-63
2023/10/23 05:33:56;;;;;;;2.88;2.20;;;5.40;99.90;;;;;;5055215;28;20202;-63
2023/10/23 05:36:23;;;;;;;2.55;2.28;;;5.30;99.90;;;;;;5054978;28;20228;-63
2023/10/23 05:38:50;;;;;;;2.90;2.70;;;5.30;99.90;;;;;;5054694;28;20195;-63
2023/10/23 05:41:17;;;;;;;2.92;2.72;;;5.30;99.90;;;;;;5057893;28;20208;-63
2023/10/23 05:43:45;;;;;;;2.78;2.50;;;5.30;99.90;;;;;;5073699;28;20208;-63
2023/10/23 05:46:12;;;;;;;3.28;3.03;;;5.30;99.90;;;;;;5075032;28;20229;-63
2023/10/23 05:48:39;;;;;;;3.08;2.45;;;5.20;99.90;;;;;;5074421;28;20233;-64
2023/10/23 05:51:06;;;;;;;3.88;3.55;;;5.20;99.90;;;;;;5063693;28;20600;-63
2023/10/23 05:53:33;;;;;;;3.92;3.67;;;5.20;99.90;;;;;;5054767;28;20297;-63
2023/10/23 05:56:04;;;;;;;3.15;2.95;;;5.20;99.90;;;;;;5054849;28;20206;-63
2023/10/23 05:58:31;;;;;;;3.85;2.63;;;5.20;99.90;;;;;;5054372;28;20756;-64
2023/10/23 06:01:04;;;;;;;3.63;3.33;;;5.20;99.90;;;;;;5054752;28;20297;-63
2023/10/23 06:03:31;;;;;;;2.85;2.65;;;5.10;99.90;;;;;;5054520;28;20202;-63
2023/10/23 06:05:58;;;;;;;3.00;2.80;;;5.20;99.90;;;;;;5054474;28;20241;-63
2023/10/23 06:08:25;;;;;;;2.90;2.67;;;5.10;99.90;;;;;;5054095;28;20321;-64
2023/10/23 06:10:53;;;;;;;3.92;3.20;;;5.10;99.90;;;;;;5054682;28;20210;-63
2023/10/23 06:13:20;;;;;;;3.47;3.08;;;5.20;99.90;;;;;;5054312;28;20703;-63
2023/10/23 06:15:47;;;;;;;2.55;2.35;;;5.20;99.90;;;;;;5054534;28;20233;-63
2023/10/23 06:18:15;;;;;;;4.10;2.42;;;5.10;99.90;;;;;;5054312;28;20280;-64
2023/10/23 06:20:42;;;;;;;5.47;3.05;;;5.20;99.90;;;;;;5053889;28;20206;-63
2023/10/23 06:23:09;;;;;;;3.10;2.80;;;5.20;99.90;;;;;;5053936;28;20677;-63
2023/10/23 06:25:36;;;;;;;4.53;2.38;;;5.20;99.90;;;;;;5054368;28;20213;-63
2023/10/23 06:28:03;;;;;;;2.58;2.35;;;5.20;99.90;;;;;;5053936;28;20699;-63
2023/10/23 06:30:30;;;;;;;2.67;2.47;;;5.20;99.90;;;;;;5053805;28;20225;-63
2023/10/23 06:32:57;;;;;;;3.10;2.85;;;5.20;99.90;;;;;;5054069;28;20294;-63
2023/10/23 06:35:25;;;;;;;6.47;4.05;;;5.30;99.90;;;;;;5054030;28;20680;-63
2023/10/23 06:37:52;;;;;;;14.75;3.50;;;5.20;99.90;;;;;;5053562;28;20234;-63
2023/10/23 06:40:19;;;;;;;9.32;3.75;;;5.20;99.90;;;;;;5053913;28;20203;-63
2023/10/23 06:42:46;;;;;;;3.28;3.03;;;5.20;99.90;;;;;;5052285;28;20206;-64
2023/10/23 06:45:13;;;;;;;5.00;4.50;;;5.20;99.90;;;;;;5052871;28;20641;-63
2023/10/23 06:47:40;;;;;;;6.60;4.50;;;5.20;99.90;;;;;;5052192;28;20317;-63
2023/10/23 06:50:10;;;;;;;3.72;3.28;;;5.30;99.90;;;;;;5053285;28;20594;-64
2023/10/23 06:52:38;;;;;;;4.75;4.05;;;5.30;99.90;;;;;;5045481;28;20207;-63
2023/10/23 06:55:05;;;;;;;4.30;3.60;;;5.30;99.90;;;;;;5053811;28;20212;-63
2023/10/23 06:57:32;;;;;;;4.00;3.65;;;5.30;99.90;;;;;;5053048;28;20234;-63
2023/10/23 06:59:59;;;;;;;6.00;3.80;;;5.40;99.90;;;;;;5053476;28;20194;-63
2023/10/23 07:02:26;;;;;;;4.93;4.28;;;5.40;99.90;;;;;;5052823;28;20242;-63
2023/10/23 07:04:53;;;;;;;5.00;2.75;;;5.50;99.90;;;;;;5053807;28;20291;-63
2023/10/23 07:07:20;;;;;;;4.45;3.10;;;5.50;99.90;;;;;;5052732;28;20295;-63
2023/10/23 07:09:48;;;;;;;2.97;2.78;;;5.50;99.90;;;;;;5052767;28;20317;-63
2023/10/23 07:12:16;;;;;;;2.90;2.70;;;5.50;99.90;;;;;;5049711;28;20950;-63
2023/10/23 07:14:43;;;;;;;4.88;3.08;;;5.60;99.90;;;;;;5052543;28;20294;-64
2023/10/23 07:17:09;;;;;;;2.83;2.63;;;5.60;99.90;;;;;;5051718;28;20223;-64
2023/10/23 07:19:36;;;;;;;5.22;2.85;;;5.60;99.90;;;;;;5051780;28;20281;-64
2023/10/23 07:22:04;;;;;;;4.65;3.70;;;5.60;99.90;;;;;;5052948;28;20210;-64
2023/10/23 07:24:31;;;;;;;3.60;3.40;;;5.60;99.90;;;;;;5052854;28;20229;-63
2023/10/23 07:26:59;;;;;;;2.60;2.40;;;5.70;99.90;;;;;;5052463;28;20308;-63
2023/10/23 07:29:26;;;;;;;4.15;3.50;;;5.70;99.90;;;;;;5052276;28;20367;-64
2023/10/23 07:31:53;;;;;;;2.80;2.60;;;5.70;99.90;;;;;;5052058;28;20293;-64
2023/10/23 07:34:19;;;;;;;2.88;2.35;;;5.80;99.90;;;;;;5053124;28;20206;-64
2023/10/23 07:36:46;;;;;;;2.30;2.20;;;5.90;99.90;;;;;;5052085;28;20222;-63
2023/10/23 07:39:13;;;;;;;2.70;2.50;;;5.90;99.90;;;;;;5052583;28;20202;-63
2023/10/23 07:41:40;;;;;;;2.50;2.30;;;5.90;99.90;;;;;;5052156;28;20202;-63
2023/10/23 07:44:08;;;;;;;3.85;2.42;;;6.00;99.90;;;;;;5052249;28;20294;-64
2023/10/23 07:46:35;;;;;;;3.97;2.75;;;6.00;99.90;;;;;;5052712;28;20296;-65
2023/10/23 07:49:02;;;;;;;2.70;2.50;;;6.10;99.90;;;;;;5051959;28;20232;-66
2023/10/23 07:51:29;;;;;;;3.97;2.90;;;6.20;99.90;;;;;;5051559;28;20297;-66
2023/10/23 07:53:56;;;;;;;5.18;2.70;;;6.20;99.90;;;;;;5052243;28;20211;-66
2023/10/23 07:56:23;;;;;;;3.25;2.70;;;6.30;99.90;;;;;;5052543;28;20605;-66
2023/10/23 07:58:51;;;;;;;3.75;3.35;;;6.30;99.90;;;;;;5052129;28;20285;-66
2023/10/23 08:01:19;;;;;;;8.93;3.30;;;6.40;99.90;;;;;;5052436;28;20268;-66
2023/10/23 08:03:46;;;;;;;3.00;2.75;;;6.50;99.90;;;;;;5050070;28;20207;-66
2023/10/23 08:06:13;;;;;;;3.80;3.50;;;6.60;99.90;;;;;;5051113;28;20724;-66
2023/10/23 08:08:41;;;;;;;4.75;2.78;;;6.70;99.90;;;;;;5051690;28;20676;-66
2023/10/23 08:11:10;;;;;;;3.45;3.15;;;6.80;99.90;;;;;;5051953;28;20214;-66
2023/10/23 08:13:37;;;;;;;4.70;4.32;;;6.90;99.90;;;;;;5051855;28;20317;-66
2023/10/23 08:16:04;;;;;;;3.30;3.00;;;7.00;99.90;;;;;;5051946;28;20226;-66
2023/10/23 08:18:34;;;;;;;6.68;4.18;;;7.00;99.90;;;;;;5051569;28;20293;-65
2023/10/23 08:21:01;;;;;;;4.20;3.80;;;7.10;99.90;;;;;;5051619;28;20209;-65
2023/10/23 08:26:03;;;;;;;4.28;3.97;;;7.20;99.90;;;;;;5429602;22;20250;-65
2023/10/23 08:28:30;;;;;;;5.50;3.50;;;7.30;99.90;;;;;;5028856;28;20208;-65
2023/10/23 08:30:57;;;;;;;4.22;3.80;;;7.40;99.90;;;;;;5016857;28;20223;-65
2023/10/23 08:33:24;;;;;;;6.13;4.72;;;7.50;99.90;;;;;;5013327;28;20211;-65
2023/10/23 08:35:52;;;;;;;5.15;4.40;;;7.50;99.90;;;;;;5011687;28;20235;-65
2023/10/23 08:38:20;;;;;;;6.82;4.03;;;7.60;99.90;;;;;;5025343;28;20218;-65
2023/10/23 08:40:48;;;;;;;3.50;3.20;;;7.80;99.90;;;;;;5017814;28;20210;-64
2023/10/23 08:43:15;;;;;;;5.90;3.72;;;7.90;99.90;;;;;;5007575;28;20218;-65
2023/10/23 08:45:44;;;;;;;3.42;2.97;;;8.00;99.90;;;;;;5010519;28;20226;-65
2023/10/23 08:48:10;;;;;;;3.85;3.55;;;8.10;99.90;;;;;;5010372;28;20223;-65
2023/10/23 08:50:40;;;;;;;5.63;4.30;;;8.30;99.90;;;;;;5003044;28;20255;-65
2023/10/23 08:53:09;;;;;;;4.50;4.10;;;8.50;99.90;;;;;;5010945;28;20290;-65
2023/10/23 08:55:37;;;;;;;4.00;3.70;;;8.60;99.90;;;;;;5010721;28;20232;-65
2023/10/23 08:58:05;;;;;;;4.03;3.78;;;8.80;99.90;;;;;;5010251;28;20446;-65
2023/10/23 09:00:33;;;;;;;7.30;4.88;;;8.90;99.90;;;;;;5010701;28;20204;-65
2023/10/23 09:03:01;;;;;;;5.17;4.10;;;9.10;99.90;;;;;;5010873;28;20334;-64
2023/10/23 09:05:28;;;;;;;3.97;3.67;;;9.30;99.90;;;;;;5010450;28;20558;-64
2023/10/23 09:07:55;;;;;;;4.28;3.92;;;9.40;99.90;;;;;;5010185;28;20295;-65
2023/10/23 09:10:23;;;;;;;4.60;4.20;;;9.60;99.90;;;;;;5010891;28;20238;-65
2023/10/23 09:12:55;;;;;;;4.87;4.37;;;9.70;99.90;;;;;;5010156;28;20450;-66
2023/10/23 09:15:23;;;;;;;4.20;3.90;;;9.90;99.90;;;;;;5010108;28;20475;-65
2023/10/23 09:17:50;;;;;;;6.13;4.97;;;10.00;99.90;;;;;;5010302;28;20455;-65
2023/10/23 09:20:22;;;;;;;5.33;4.67;;;10.20;99.90;;;;;;5010685;28;20442;-65
2023/10/23 09:22:49;;;;;;;5.77;4.53;;;10.40;99.90;;;;;;5010657;28;20453;-65
2023/10/23 09:25:16;;;;;;;8.03;4.87;;;10.50;99.90;;;;;;5010193;28;20470;-65
2023/10/23 09:27:45;;;;;;;8.67;5.10;;;10.60;99.90;;;;;;5010607;28;20501;-65
2023/10/23 09:30:13;;;;;;;7.23;4.40;;;10.70;99.90;;;;;;5010385;28;20497;-65
2023/10/23 09:32:40;;;;;;;5.03;4.53;;;10.90;99.90;;;;;;5002839;28;20889;-65
2023/10/23 09:35:08;;;;;;;6.13;5.53;;;11.00;99.90;;;;;;5010141;28;20474;-65
2023/10/23 09:37:36;;;;;;;5.20;3.90;;;11.20;99.90;;;;;;5010544;28;20455;-65
2023/10/23 09:40:06;;;;;;;4.60;3.80;;;11.30;99.90;;;;;;5010418;28;20449;-65
2023/10/23 09:42:33;;;;;;;5.60;4.53;;;11.50;99.90;;;;;;5010929;28;20447;-65
2023/10/23 09:45:04;;;;;;;8.93;6.77;;;11.60;99.90;;;;;;5010246;28;20846;-65
2023/10/23 09:47:31;;;;;;;6.77;6.07;;;11.70;99.90;;;;;;5010767;28;20542;-65
2023/10/23 09:49:59;;;;;;;12.70;7.40;;;11.80;99.90;;;;;;5010207;28;20541;-65
2023/10/23 09:52:27;;;;;;;7.13;5.90;;;11.90;99.90;;;;;;5010532;28;20451;-65
2023/10/23 09:54:59;;;;;;;5.17;4.67;;;12.00;99.90;;;;;;5010066;28;20473;-66
2023/10/23 09:57:34;;;;;;;4.53;4.13;;;12.20;99.90;;;;;;5010737;28;20825;-65
2023/10/23 10:00:12;;;;;;;5.63;5.10;;;12.30;99.90;;;;;;5010358;28;20449;-65
2023/10/23 10:02:40;;;;;;;4.57;3.63;;;12.40;99.90;;;;;;5010621;28;20450;-65
2023/10/23 10:05:09;;;;;;;4.20;3.77;;;12.50;99.90;;;;;;5009855;28;20473;-65
2023/10/23 10:07:45;;;;;;;5.20;4.00;;;12.60;99.90;;;;;;5010478;28;20456;-65
2023/10/23 10:10:12;;;;;;;5.50;4.33;;;12.70;99.90;;;;;;5010394;28;20485;-65
2023/10/23 10:12:41;;;;;;;5.20;4.00;;;12.80;99.90;;;;;;5010414;28;20447;-66
2023/10/23 10:15:10;;;;;;;5.23;3.80;;;12.90;99.90;;;;;;5013649;28;20513;-65
2023/10/23 10:17:39;;;;;;;4.50;3.33;;;13.00;99.90;;;;;;5013805;28;20451;-66
2023/10/23 10:20:08;;;;;;;4.13;3.30;;;13.10;99.90;;;;;;5007066;28;20963;-66
2023/10/23 10:22:36;;;;;;;5.17;3.60;;;13.20;99.90;;;;;;5013834;28;20827;-65
2023/10/23 10:25:05;;;;;;;9.17;3.47;;;13.30;99.90;;;;;;5013590;28;20481;-65
2023/10/23 10:27:33;;;;;;;5.07;3.30;;;13.30;99.90;;;;;;5013979;28;20549;-66
2023/10/23 10:30:01;;;;;;;3.87;3.30;;;13.40;99.90;;;;;;5013310;28;20513;-65
2023/10/23 10:32:30;;;;;;;3.40;3.10;;;13.50;99.90;;;;;;5013107;28;20974;-65
2023/10/23 10:35:01;;;;;;;4.00;3.10;;;13.50;99.90;;;;;;5013031;28;21023;-65
2023/10/23 10:37:30;;;;;;;3.87;3.37;;;13.60;99.90;;;;;;5009171;28;21013;-66
2023/10/23 10:40:09;;;;;;;6.90;3.73;;;13.70;99.90;;;;;;5009171;28;20529;-66
2023/10/23 10:42:38;;;;;;;3.23;2.70;;;13.80;99.90;;;;;;5001715;28;20462;-66
2023/10/23 10:45:19;;;;;;;8.20;3.50;;;13.90;99.90;;;;;;5004896;28;20477;-65
2023/10/23 10:47:53;;;;;;;4.10;2.60;;;13.90;99.90;;;;;;5010120;28;20454;-66
2023/10/23 10:50:38;;;;;;;6.03;2.67;;;14.00;99.90;;;;;;5013198;28;20908;-66
2023/10/23 10:53:07;;;;;;;4.03;2.70;;;14.10;99.90;;;;;;5006176;28;20460;-66
2023/10/23 10:55:36;;;;;;;3.57;3.20;;;14.10;99.90;;;;;;5012344;28;20522;-65
2023/10/23 10:58:04;;;;;;;3.70;2.63;;;14.20;99.90;;;;;;5006759;28;20965;-66
2023/10/23 11:00:32;;;;;;;5.90;2.87;;;14.30;99.90;;;;;;5013014;28;20970;-66
2023/10/23 11:03:00;;;;;;;6.10;2.80;;;14.30;99.90;;;;;;5009683;28;20450;-66
2023/10/23 11:05:27;;;;;;;2.20;2.10;;;14.40;99.90;;;;;;5004302;28;20486;-66
2023/10/23 11:07:54;;;;;;;2.93;2.47;;;14.50;99.90;;;;;;5003244;28;21430;-66
2023/10/23 11:10:22;;;;;;;3.23;2.93;;;14.50;99.90;;;;;;5012754;28;21105;-66
2023/10/23 11:12:50;;;;;;;3.70;2.80;;;14.50;99.90;;;;;;5010707;28;20462;-65
2023/10/23 11:15:17;;;;;;;2.97;2.73;;;14.50;99.90;;;;;;5012146;28;20474;-66
2023/10/23 11:17:45;;;;;;;4.53;2.43;;;14.60;99.90;;;;;;5007492;28;20868;-65
2023/10/23 11:20:15;;;;;;;2.57;2.23;;;14.60;99.90;;;;;;5006989;28;20457;-65
2023/10/23 11:22:43;;;;;;;3.47;3.17;;;14.70;99.90;;;;;;5004941;28;20457;-66
2023/10/23 11:25:10;;;;;;;3.57;2.87;;;14.70;99.90;;;;;;5000544;28;20988;-66
2023/10/23 11:27:37;;;;;;;3.77;2.80;;;14.80;99.90;;;;;;5004984;28;20524;-66
2023/10/23 11:30:05;;;;;;;4.10;3.00;;;14.90;99.90;;;;;;5009606;28;20489;-65
2023/10/23 11:32:33;;;;;;;5.77;2.70;;;14.90;99.90;;;;;;5002549;28;20827;-65
2023/10/23 11:35:03;;;;;;;6.27;4.80;;;14.90;99.90;;;;;;5003181;28;20913;-66
2023/10/23 11:37:34;;;;;;;2.80;2.40;;;15.00;99.90;;;;;;5009793;28;20534;-65
2023/10/23 11:40:05;;;;;;;8.23;2.93;;;15.00;99.90;;;;;;5006720;28;20438;-65
2023/10/23 11:42:33;;;;;;;2.97;2.40;;;15.10;99.90;;;;;;5007881;28;20486;-66
2023/10/23 11:45:00;;;;;;;4.67;2.50;;;15.10;99.90;;;;;;5009941;28;20474;-66
2023/10/23 11:47:26;;;;;;;3.10;2.00;;;15.20;99.90;;;;;;5008793;28;20461;-66
2023/10/23 11:49:53;;;;;;;7.77;3.07;;;15.20;99.90;;;;;;5010053;28;20447;-65
2023/10/23 11:52:21;;;;;;;3.43;2.83;;;15.30;99.90;;;;;;5005266;28;20459;-65
2023/10/23 11:54:49;;;;;;;3.60;3.20;;;15.30;99.90;;;;;;5011169;28;20467;-65
2023/10/23 11:57:19;;;;;;;4.57;2.77;;;15.40;99.90;;;;;;5011347;28;20453;-65
2023/10/23 11:59:48;;;;;;;3.40;3.10;;;15.50;99.90;;;;;;5011493;28;20821;-65
2023/10/23 12:02:16;;;;;;;5.50;3.00;;;15.50;99.90;;;;;;5011830;28;20447;-65
2023/10/23 12:04:43;;;;;;;7.43;2.90;;;15.50;99.90;;;;;;5009770;28;20450;-66
2023/10/23 12:07:10;;;;;;;3.30;2.80;;;15.50;99.90;;;;;;5007822;28;20473;-66
2023/10/23 12:09:37;;;;;;;4.23;2.60;;;15.50;99.90;;;;;;5011469;28;20450;-65
2023/10/23 12:12:05;;;;;;;4.00;2.97;;;15.50;99.90;;;;;;5010947;28;20492;-66
2023/10/23 12:14:32;;;;;;;2.83;2.60;;;15.50;99.90;;;;;;5010904;28;20450;-66
2023/10/23 12:16:59;;;;;;;5.20;2.43;;;15.50;99.90;;;;;;5011527;28;20531;-66
2023/10/23 12:19:26;;;;;;;2.33;2.13;;;15.50;99.90;;;;;;5004324;28;20486;-66
2023/10/23 12:21:53;;;;;;;2.53;2.37;;;15.50;99.90;;;;;;5011098;28;21045;-66
2023/10/23 12:24:20;;;;;;;2.77;2.57;;;15.50;99.90;;;;;;5008026;28;20561;-66
2023/10/23 12:26:48;;;;;;;4.80;2.40;;;15.50;99.90;;;;;;5010316;28;20856;-66
2023/10/23 12:29:16;;;;;;;5.50;2.60;;;15.50;99.90;;;;;;5011216;28;20502;-66
2023/10/23 12:31:44;;;;;;;5.40;2.80;;;15.50;99.90;;;;;;4995878;28;20540;-66
2023/10/23 12:34:11;;;;;;;3.40;2.70;;;15.60;99.90;;;;;;5016237;28;20456;-66
2023/10/23 12:36:37;;;;;;;2.80;2.50;;;15.60;99.90;;;;;;5009245;28;20470;-66
2023/10/23 12:39:06;;;;;;;6.17;2.70;;;15.60;99.90;;;;;;5010990;28;20449;-66
2023/10/23 12:41:33;;;;;;;4.50;2.50;;;15.70;99.90;;;;;;5010702;28;20450;-65
2023/10/23 12:44:00;;;;;;;3.10;2.10;;;15.70;99.90;;;;;;5010978;28;20517;-66
2023/10/23 12:46:28;;;;;;;3.60;3.30;;;15.70;99.90;;;;;;5010637;28;20550;-66
2023/10/23 12:48:55;;;;;;;2.53;2.30;;;15.80;99.90;;;;;;5009196;28;20438;-66
2023/10/23 12:51:22;;;;;;;2.23;2.03;;;15.80;99.90;;;;;;5007993;28;20867;-66
2023/10/23 12:53:49;;;;;;;2.10;2.00;;;15.80;99.90;;;;;;5010400;28;20454;-66
2023/10/23 12:56:16;;;;;;;2.30;2.10;;;15.90;99.90;;;;;;5009323;28;20558;-65